Time;durP1;ratioP1;P1;durP2;ratioP2;P2;SDS_P1;SDS_P2;PMS_P1;PMS_P2;Temp;Humidity;BMP_temperature;BMP_pressure;BME280_temperature;BME280_humidity;BME280_pressure;Samples;Min_cycle;Max_cycle;Signal;HPM_P1;HPM_P2
2021/06/29 00:00:54;;;;;;;5.70;3.47;;;19.90;99.90;;;;;;5067948;28;20548;-71
2021/06/29 00:03:39;;;;;;;6.03;3.90;;;19.90;99.90;;;;;;5070419;28;20470;-71
2021/06/29 00:06:25;;;;;;;5.00;3.77;;;19.90;99.90;;;;;;5081374;28;20401;-71
2021/06/29 00:09:10;;;;;;;9.90;3.60;;;19.80;99.90;;;;;;5075456;28;20460;-71
2021/06/29 00:11:56;;;;;;;7.97;3.70;;;19.60;99.90;;;;;;5070816;28;21125;-71
2021/06/29 00:14:44;;;;;;;5.43;3.67;;;19.30;99.90;;;;;;5081292;28;20425;-71
2021/06/29 00:17:30;;;;;;;7.57;3.67;;;19.20;99.90;;;;;;5075110;28;20426;-71
2021/06/29 00:20:16;;;;;;;3.63;3.33;;;19.10;99.90;;;;;;5075899;28;20906;-71
2021/06/29 00:23:02;;;;;;;7.33;3.90;;;19.10;99.90;;;;;;5076186;28;20508;-71
2021/06/29 00:25:48;;;;;;;8.40;4.37;;;19.00;99.90;;;;;;5066016;28;20941;-71
2021/06/29 00:28:34;;;;;;;7.60;3.90;;;19.00;99.90;;;;;;5082319;28;20592;-71
2021/06/29 00:31:21;;;;;;;11.30;4.70;;;19.00;99.90;;;;;;5090833;28;20401;-71
2021/06/29 00:34:06;;;;;;;4.60;3.83;;;19.10;99.90;;;;;;5069933;28;20782;-71
2021/06/29 00:36:52;;;;;;;6.90;4.20;;;19.20;99.90;;;;;;5077153;28;20943;-71
2021/06/29 00:39:38;;;;;;;7.03;4.27;;;19.30;99.90;;;;;;5061936;28;20450;-71
2021/06/29 00:42:24;;;;;;;5.63;4.40;;;19.30;99.90;;;;;;5068542;28;20474;-71
2021/06/29 00:45:12;;;;;;;7.60;4.00;;;19.30;99.90;;;;;;5071943;28;20450;-71
2021/06/29 00:47:59;;;;;;;5.27;3.93;;;19.30;99.90;;;;;;5073712;28;20449;-71
2021/06/29 00:50:46;;;;;;;7.73;4.77;;;19.20;99.90;;;;;;5076852;28;20468;-71
2021/06/29 00:53:32;;;;;;;8.17;4.37;;;19.10;99.90;;;;;;5085482;28;20619;-71
2021/06/29 00:56:19;;;;;;;10.67;4.23;;;19.20;99.90;;;;;;5071671;28;20461;-71
2021/06/29 00:59:05;;;;;;;6.40;4.00;;;19.20;99.90;;;;;;5081495;28;20450;-71
2021/06/29 01:01:51;;;;;;;5.97;3.90;;;19.20;99.90;;;;;;5071861;28;20469;-71
2021/06/29 01:04:39;;;;;;;6.60;4.63;;;19.20;99.90;;;;;;5053607;28;20422;-71
2021/06/29 01:07:24;;;;;;;8.43;4.30;;;19.20;99.90;;;;;;5076373;28;20463;-71
2021/06/29 01:10:11;;;;;;;5.20;4.30;;;19.30;99.90;;;;;;5071418;28;20574;-71
2021/06/29 01:12:57;;;;;;;11.03;4.70;;;19.30;99.90;;;;;;5071922;28;20497;-71
2021/06/29 01:15:43;;;;;;;5.00;4.40;;;19.30;99.90;;;;;;5067376;28;21264;-71
2021/06/29 01:18:29;;;;;;;7.00;4.37;;;19.30;99.90;;;;;;5078917;28;20413;-71
2021/06/29 01:21:17;;;;;;;5.83;4.13;;;19.30;99.90;;;;;;5082601;28;20980;-71
2021/06/29 01:24:05;;;;;;;5.30;4.20;;;19.40;99.90;;;;;;5087608;28;20400;-71
2021/06/29 01:26:58;;;;;;;9.30;4.10;;;19.50;99.90;;;;;;5080367;28;20585;-71
2021/06/29 01:30:57;;;;;;;5.40;4.40;;;19.50;99.90;;;;;;5070285;28;20442;-71
2021/06/29 01:32:52;;;;;;;5.20;4.43;;;19.60;99.90;;;;;;5075800;28;20521;-71
2021/06/29 01:35:39;;;;;;;6.53;4.50;;;19.70;99.90;;;;;;5068649;28;20444;-71
2021/06/29 01:38:27;;;;;;;5.27;4.80;;;19.80;99.90;;;;;;5078690;28;20899;-71
2021/06/29 01:41:13;;;;;;;5.57;4.50;;;19.80;99.90;;;;;;5064994;28;21014;-71
2021/06/29 01:44:05;;;;;;;6.80;5.00;;;19.80;99.90;;;;;;5080853;28;20558;-72
2021/06/29 01:46:53;;;;;;;6.20;4.30;;;19.80;99.90;;;;;;5075001;28;20592;-72
2021/06/29 01:49:38;;;;;;;6.80;5.23;;;19.70;99.90;;;;;;5074540;28;20425;-72
2021/06/29 01:52:23;;;;;;;6.60;5.60;;;19.70;99.90;;;;;;5082729;28;20511;-72
2021/06/29 01:55:12;;;;;;;5.90;5.40;;;19.60;99.90;;;;;;5083022;28;20462;-71
2021/06/29 01:57:59;;;;;;;8.00;6.63;;;19.50;99.90;;;;;;5072710;28;20441;-72
2021/06/29 02:00:44;;;;;;;6.37;5.87;;;19.50;99.90;;;;;;5065772;28;20465;-72
2021/06/29 02:03:30;;;;;;;7.97;4.60;;;19.50;99.90;;;;;;5074578;28;20612;-72
2021/06/29 02:06:17;;;;;;;13.60;6.40;;;19.60;99.90;;;;;;5081281;28;20524;-72
2021/06/29 02:09:03;;;;;;;5.90;5.30;;;19.60;99.90;;;;;;5064615;28;20865;-71
2021/06/29 02:11:50;;;;;;;13.00;5.30;;;19.50;99.90;;;;;;5074479;28;20441;-72
2021/06/29 02:14:37;;;;;;;10.73;5.17;;;19.50;99.90;;;;;;5082569;28;20422;-72
2021/06/29 02:17:23;;;;;;;6.10;5.30;;;19.50;99.90;;;;;;5076880;28;21043;-71
2021/06/29 02:20:11;;;;;;;9.47;6.70;;;19.50;99.90;;;;;;5074310;28;20517;-73
2021/06/29 02:22:56;;;;;;;10.33;5.90;;;19.40;99.90;;;;;;5070330;28;20471;-71
2021/06/29 02:25:42;;;;;;;9.77;5.73;;;19.50;99.90;;;;;;5064793;28;20457;-72
2021/06/29 02:28:29;;;;;;;9.83;6.13;;;19.50;99.90;;;;;;5069815;28;20907;-72
2021/06/29 02:31:15;;;;;;;9.57;6.43;;;19.40;99.90;;;;;;5080993;28;20476;-71
2021/06/29 02:34:00;;;;;;;7.43;6.33;;;19.30;99.90;;;;;;5086339;28;20892;-72
2021/06/29 02:36:46;;;;;;;7.57;6.87;;;19.30;99.90;;;;;;5071762;28;20458;-72
2021/06/29 02:39:32;;;;;;;12.30;6.27;;;19.20;99.90;;;;;;5074083;28;20494;-72
2021/06/29 02:42:18;;;;;;;7.87;5.73;;;19.30;99.90;;;;;;5061056;28;20526;-72
2021/06/29 02:45:07;;;;;;;9.23;6.47;;;19.30;99.90;;;;;;5078966;28;20963;-72
2021/06/29 02:47:54;;;;;;;6.07;5.50;;;19.40;99.90;;;;;;5077935;28;20441;-72
2021/06/29 02:50:40;;;;;;;9.93;6.07;;;19.40;99.90;;;;;;5063288;28;20417;-72
2021/06/29 02:53:25;;;;;;;7.83;6.10;;;19.40;99.90;;;;;;5073261;28;20539;-72
2021/06/29 02:56:37;;;;;;;6.83;6.13;;;19.50;99.90;;;;;;5068535;28;20446;-72
2021/06/29 02:59:17;;;;;;;11.37;6.20;;;19.50;99.90;;;;;;5076781;28;20449;-72
2021/06/29 03:02:05;;;;;;;6.80;6.00;;;19.50;99.90;;;;;;5079145;28;20481;-72
2021/06/29 03:04:51;;;;;;;7.03;6.37;;;19.60;99.90;;;;;;5068942;28;20446;-71
2021/06/29 03:07:37;;;;;;;7.20;6.60;;;19.70;99.90;;;;;;5080420;28;20439;-71
2021/06/29 03:10:22;;;;;;;12.30;7.17;;;19.70;99.90;;;;;;5064814;28;20936;-72
2021/06/29 03:13:08;;;;;;;10.70;6.50;;;19.60;99.90;;;;;;5068246;28;21088;-71
2021/06/29 03:15:53;;;;;;;11.27;7.10;;;19.60;99.90;;;;;;5069926;28;20460;-72
2021/06/29 03:18:40;;;;;;;7.57;6.77;;;19.60;99.90;;;;;;5074833;28;20434;-72
2021/06/29 03:21:26;;;;;;;7.63;6.40;;;19.60;99.90;;;;;;5072156;28;20568;-72
2021/06/29 03:24:12;;;;;;;7.27;6.67;;;19.50;99.90;;;;;;5076039;28;20535;-72
2021/06/29 03:26:58;;;;;;;15.10;7.40;;;19.40;99.90;;;;;;5083778;28;20507;-72
2021/06/29 03:29:44;;;;;;;10.73;6.90;;;19.50;99.90;;;;;;5073602;28;20478;-71
2021/06/29 03:32:29;;;;;;;7.10;6.40;;;19.40;99.90;;;;;;5089217;28;20591;-72
2021/06/29 03:35:17;;;;;;;12.23;6.60;;;19.40;99.90;;;;;;5057415;28;20768;-72
2021/06/29 03:38:02;;;;;;;11.30;6.90;;;19.30;99.90;;;;;;5086263;28;20589;-71
2021/06/29 03:40:48;;;;;;;11.07;5.90;;;19.20;99.90;;;;;;5069606;28;20795;-72
2021/06/29 03:43:36;;;;;;;8.03;6.70;;;19.10;99.90;;;;;;5076182;28;20818;-72
2021/06/29 03:46:22;;;;;;;9.60;5.67;;;19.20;99.90;;;;;;5081752;28;20955;-71
2021/06/29 03:49:08;;;;;;;11.03;5.90;;;19.20;99.90;;;;;;5081117;28;20425;-72
2021/06/29 03:51:55;;;;;;;10.50;5.33;;;19.30;99.90;;;;;;5070573;28;20472;-72
2021/06/29 03:54:41;;;;;;;8.10;5.30;;;19.40;99.90;;;;;;5077418;28;20565;-72
2021/06/29 03:57:26;;;;;;;8.43;5.00;;;19.40;99.90;;;;;;5081703;28;20458;-71
2021/06/29 04:00:14;;;;;;;9.40;5.10;;;19.40;99.90;;;;;;5077630;28;20507;-72
2021/06/29 04:02:59;;;;;;;6.10;5.00;;;19.30;99.90;;;;;;5079135;28;20456;-72
2021/06/29 04:05:45;;;;;;;8.10;5.00;;;19.30;99.90;;;;;;5072034;28;20433;-72
2021/06/29 04:08:31;;;;;;;6.97;5.10;;;19.30;99.90;;;;;;5080890;28;20429;-72
2021/06/29 04:11:17;;;;;;;9.90;5.17;;;19.20;99.90;;;;;;5071504;28;20455;-72
2021/06/29 04:14:04;;;;;;;7.93;4.43;;;19.30;99.90;;;;;;5083206;28;20458;-72
2021/06/29 04:16:50;;;;;;;6.83;4.40;;;19.20;99.90;;;;;;5080408;28;20423;-71
2021/06/29 04:19:36;;;;;;;12.23;4.70;;;19.20;99.90;;;;;;5078434;28;20461;-71
2021/06/29 04:22:21;;;;;;;10.83;4.30;;;19.20;99.90;;;;;;5082898;28;20622;-72
2021/06/29 04:25:10;;;;;;;5.67;5.13;;;19.20;99.90;;;;;;5080061;28;20839;-72
2021/06/29 04:27:55;;;;;;;5.10;4.40;;;19.20;99.90;;;;;;5082076;28;20404;-72
2021/06/29 04:30:41;;;;;;;5.63;4.97;;;19.30;99.90;;;;;;5075802;28;20592;-71
2021/06/29 04:33:27;;;;;;;6.73;4.87;;;19.30;99.90;;;;;;5076424;28;20836;-73
2021/06/29 04:36:13;;;;;;;18.30;4.73;;;19.30;99.90;;;;;;5070625;28;20416;-72
2021/06/29 04:38:59;;;;;;;4.43;3.70;;;19.30;99.90;;;;;;5081320;28;20423;-72
2021/06/29 04:41:46;;;;;;;12.43;3.80;;;19.20;99.90;;;;;;5061665;28;20575;-72
2021/06/29 04:44:35;;;;;;;9.10;3.50;;;19.20;99.90;;;;;;5080541;28;20454;-72
2021/06/29 04:47:21;;;;;;;5.03;3.73;;;19.30;99.90;;;;;;5078659;28;20455;-72
2021/06/29 04:50:07;;;;;;;5.83;4.10;;;19.30;99.90;;;;;;5079824;28;20454;-72
2021/06/29 04:52:54;;;;;;;5.10;3.30;;;19.20;99.90;;;;;;5077094;28;20477;-72
2021/06/29 04:55:40;;;;;;;6.00;3.83;;;19.10;99.90;;;;;;5078016;28;20443;-72
2021/06/29 04:58:27;;;;;;;4.50;3.70;;;19.00;99.90;;;;;;5076517;28;20514;-72
2021/06/29 05:01:13;;;;;;;6.07;3.87;;;19.00;99.90;;;;;;5078123;28;20510;-72
2021/06/29 05:03:59;;;;;;;8.20;4.50;;;19.10;99.90;;;;;;5076707;28;20508;-71
2021/06/29 05:06:45;;;;;;;7.03;4.60;;;19.10;99.90;;;;;;5061618;28;20511;-71
2021/06/29 05:09:31;;;;;;;10.40;4.67;;;19.00;99.90;;;;;;5077860;28;20520;-72
2021/06/29 05:12:16;;;;;;;4.47;3.83;;;19.10;99.90;;;;;;5068380;28;20476;-73
2021/06/29 05:15:04;;;;;;;7.33;4.77;;;19.20;99.90;;;;;;5075544;28;20489;-72
2021/06/29 05:17:50;;;;;;;9.27;3.60;;;19.30;99.90;;;;;;5073685;28;21147;-71
2021/06/29 05:20:35;;;;;;;7.17;3.53;;;19.30;99.90;;;;;;5083869;28;20425;-71
2021/06/29 05:23:21;;;;;;;10.17;4.27;;;19.30;99.90;;;;;;5078120;28;20474;-72
2021/06/29 05:26:07;;;;;;;6.70;4.33;;;19.30;99.90;;;;;;5077821;28;20455;-72
2021/06/29 05:28:52;;;;;;;4.07;3.50;;;19.40;99.90;;;;;;5062921;28;20446;-71
2021/06/29 05:31:40;;;;;;;4.10;3.20;;;19.50;99.90;;;;;;5067735;28;20580;-72
2021/06/29 05:34:25;;;;;;;6.47;3.23;;;19.50;99.90;;;;;;5069543;28;20448;-72
2021/06/29 05:37:11;;;;;;;9.57;3.60;;;19.60;99.90;;;;;;5072392;28;20455;-72
2021/06/29 05:39:57;;;;;;;8.17;3.90;;;19.60;99.90;;;;;;5069655;28;20635;-72
2021/06/29 05:42:42;;;;;;;3.77;3.10;;;19.70;99.90;;;;;;5078560;28;20476;-72
2021/06/29 05:45:28;;;;;;;6.70;4.07;;;19.70;99.90;;;;;;5078100;28;20505;-71
2021/06/29 05:48:18;;;;;;;7.10;3.70;;;19.70;99.90;;;;;;5066726;28;20500;-72
2021/06/29 05:51:04;;;;;;;4.27;3.87;;;19.80;99.90;;;;;;5085597;28;21001;-72
2021/06/29 05:53:49;;;;;;;4.63;3.40;;;19.80;99.90;;;;;;5062423;28;20492;-72
2021/06/29 05:56:35;;;;;;;5.60;3.13;;;19.80;99.90;;;;;;5082767;28;20425;-72
2021/06/29 05:59:21;;;;;;;5.30;4.10;;;19.80;99.90;;;;;;5081858;28;20458;-72
2021/06/29 06:02:06;;;;;;;7.30;3.90;;;19.90;99.90;;;;;;5079486;28;20476;-72
2021/06/29 06:04:53;;;;;;;7.50;3.50;;;19.90;99.90;;;;;;5050997;28;20435;-72
2021/06/29 06:07:39;;;;;;;6.73;3.40;;;19.90;99.90;;;;;;5065267;28;20454;-71
2021/06/29 06:10:25;;;;;;;5.97;4.30;;;19.90;99.90;;;;;;5073582;28;20447;-72
2021/06/29 06:13:11;;;;;;;4.83;4.13;;;20.00;99.90;;;;;;5076095;28;20447;-72
2021/06/29 06:15:58;;;;;;;4.33;3.33;;;20.00;99.90;;;;;;5069448;28;20661;-72
2021/06/29 06:18:43;;;;;;;6.17;3.80;;;20.20;99.90;;;;;;5072922;28;20450;-72
2021/06/29 06:21:31;;;;;;;6.63;3.30;;;20.40;99.90;;;;;;5080473;28;20532;-72
2021/06/29 06:24:17;;;;;;;7.20;3.40;;;20.30;99.90;;;;;;5076361;28;20574;-72
2021/06/29 06:27:02;;;;;;;5.30;3.93;;;20.40;99.90;;;;;;5076272;28;20438;-72
2021/06/29 06:29:48;;;;;;;5.50;3.60;;;20.40;99.90;;;;;;5064623;28;20446;-71
2021/06/29 06:32:34;;;;;;;12.00;3.90;;;20.50;99.90;;;;;;5079336;28;20486;-72
2021/06/29 06:35:20;;;;;;;9.03;3.63;;;20.60;99.90;;;;;;5084594;28;20449;-72
2021/06/29 06:38:07;;;;;;;12.07;4.40;;;20.70;99.90;;;;;;5095674;28;20430;-71
2021/06/29 06:40:55;;;;;;;5.43;3.63;;;20.80;99.90;;;;;;5084755;28;20805;-71
2021/06/29 06:43:41;;;;;;;4.20;2.83;;;20.90;99.90;;;;;;5058716;28;20592;-71
2021/06/29 06:46:27;;;;;;;4.50;3.30;;;20.90;99.90;;;;;;5093837;28;20507;-71
2021/06/29 06:49:13;;;;;;;6.23;3.27;;;20.90;99.90;;;;;;5095152;28;20564;-71
2021/06/29 06:51:58;;;;;;;5.20;2.90;;;20.90;99.90;;;;;;5095276;28;20448;-71
2021/06/29 06:54:45;;;;;;;7.13;3.20;;;20.90;99.90;;;;;;5095027;28;20548;-71
2021/06/29 06:57:31;;;;;;;4.00;2.60;;;20.80;99.90;;;;;;5095495;28;20895;-71
2021/06/29 07:00:17;;;;;;;4.20;3.30;;;20.90;99.90;;;;;;5081361;28;20428;-72
2021/06/29 07:03:04;;;;;;;5.63;3.07;;;20.90;99.90;;;;;;5061013;28;20831;-71
2021/06/29 07:05:49;;;;;;;21.17;4.47;;;20.90;99.90;;;;;;5054084;28;20518;-71
2021/06/29 07:08:35;;;;;;;8.23;2.80;;;20.90;99.90;;;;;;5059011;28;20559;-71
2021/06/29 07:11:22;;;;;;;5.33;2.77;;;20.90;99.90;;;;;;5081953;28;20974;-71
2021/06/29 07:14:07;;;;;;;6.33;3.00;;;21.00;99.90;;;;;;5094863;28;20408;-72
2021/06/29 07:16:53;;;;;;;6.87;3.33;;;21.10;99.90;;;;;;5094564;28;20962;-71
2021/06/29 07:19:39;;;;;;;3.13;2.77;;;21.00;99.90;;;;;;5081853;28;20823;-71
2021/06/29 07:22:24;;;;;;;3.87;2.77;;;21.10;99.90;;;;;;5074162;28;20470;-71
2021/06/29 07:25:10;;;;;;;5.67;3.40;;;21.20;99.90;;;;;;5074024;28;20423;-71
2021/06/29 07:27:58;;;;;;;5.20;2.83;;;21.30;99.90;;;;;;5076089;28;20453;-71
2021/06/29 07:30:44;;;;;;;10.40;2.93;;;21.40;99.90;;;;;;5053687;28;20458;-71
2021/06/29 07:33:29;;;;;;;3.13;2.83;;;21.50;99.90;;;;;;5054569;28;20515;-71
2021/06/29 07:36:16;;;;;;;4.80;2.70;;;21.60;99.90;;;;;;5053509;28;20540;-71
2021/06/29 07:39:02;;;;;;;7.10;2.97;;;21.50;99.90;;;;;;5057749;28;20509;-72
2021/06/29 07:41:47;;;;;;;5.33;2.50;;;21.50;99.90;;;;;;5075466;28;20438;-71
2021/06/29 07:44:34;;;;;;;3.40;2.97;;;21.50;99.90;;;;;;5073717;28;20447;-71
2021/06/29 07:47:20;;;;;;;5.50;2.90;;;21.40;99.90;;;;;;5073401;28;20451;-70
2021/06/29 07:50:08;;;;;;;3.50;2.60;;;21.50;99.90;;;;;;5094174;28;20431;-72
2021/06/29 07:52:54;;;;;;;8.63;2.50;;;21.40;99.90;;;;;;5094154;28;20434;-71
2021/06/29 07:55:39;;;;;;;3.27;2.50;;;21.50;99.90;;;;;;5093690;28;20431;-71
2021/06/29 07:58:25;;;;;;;3.70;3.17;;;21.50;99.90;;;;;;5093861;28;20565;-71
2021/06/29 08:01:13;;;;;;;9.50;3.07;;;21.60;99.90;;;;;;5084427;28;20956;-71
2021/06/29 08:03:58;;;;;;;3.80;2.53;;;21.60;99.90;;;;;;5091316;28;20483;-71
2021/06/29 08:06:44;;;;;;;4.83;2.83;;;21.60;99.90;;;;;;5089631;28;20455;-71
2021/06/29 08:09:29;;;;;;;4.03;2.87;;;21.70;99.90;;;;;;5073456;28;20427;-71
2021/06/29 08:12:16;;;;;;;3.97;3.07;;;21.80;99.90;;;;;;5081802;28;20597;-71
2021/06/29 08:15:02;;;;;;;3.67;2.63;;;21.80;99.90;;;;;;5072846;28;20776;-71
2021/06/29 08:17:50;;;;;;;3.70;2.83;;;21.90;99.90;;;;;;5073595;28;20557;-71
2021/06/29 08:20:35;;;;;;;4.07;2.90;;;21.90;99.90;;;;;;5073425;28;20410;-71
2021/06/29 08:23:21;;;;;;;5.80;3.10;;;21.90;99.90;;;;;;5076765;28;20482;-71
2021/06/29 08:26:07;;;;;;;10.10;3.30;;;21.90;99.90;;;;;;5068629;28;20415;-71
2021/06/29 08:28:52;;;;;;;4.87;2.73;;;21.80;99.90;;;;;;5072999;28;20937;-71
2021/06/29 08:31:38;;;;;;;4.77;2.57;;;21.80;99.90;;;;;;5073245;28;20427;-71
2021/06/29 08:34:25;;;;;;;5.23;2.87;;;21.70;99.90;;;;;;5075859;28;20417;-71
2021/06/29 08:37:11;;;;;;;8.13;2.80;;;21.80;99.90;;;;;;5093301;28;20418;-71
2021/06/29 08:39:57;;;;;;;3.83;3.07;;;22.00;99.90;;;;;;5086871;28;20962;-72
2021/06/29 08:42:43;;;;;;;3.60;2.90;;;22.10;99.90;;;;;;5078486;28;20545;-71
2021/06/29 08:45:29;;;;;;;10.37;3.60;;;22.20;99.90;;;;;;5071097;28;20418;-71
2021/06/29 08:48:15;;;;;;;5.33;2.77;;;22.00;99.90;;;;;;5071899;28;20471;-71
2021/06/29 08:51:04;;;;;;;4.83;3.20;;;21.90;99.90;;;;;;5072764;28;20943;-71
2021/06/29 08:53:50;;;;;;;3.87;2.73;;;22.00;99.90;;;;;;5072826;28;20493;-71
2021/06/29 08:56:35;;;;;;;10.13;3.50;;;22.00;99.90;;;;;;5071519;28;20395;-71
2021/06/29 08:59:21;;;;;;;4.37;2.80;;;22.20;99.90;;;;;;5052354;28;20935;-71
2021/06/29 09:02:07;;;;;;;3.60;2.73;;;22.40;99.90;;;;;;5052353;28;20463;-71
2021/06/29 09:04:55;;;;;;;4.23;3.10;;;22.70;99.90;;;;;;5052152;28;20430;-71
2021/06/29 09:07:44;;;;;;;6.60;2.70;;;23.00;99.90;;;;;;5071101;28;20868;-71
2021/06/29 09:10:29;;;;;;;2.67;2.07;;;23.00;99.90;;;;;;5078054;28;20436;-71
2021/06/29 09:13:23;;;;;;;4.40;3.03;;;23.10;99.90;;;;;;5087596;28;21057;-71
2021/06/29 09:16:10;;;;;;;4.47;2.57;;;23.00;99.90;;;;;;5092167;28;20778;-70
2021/06/29 09:18:55;;;;;;;5.47;2.90;;;23.00;99.90;;;;;;5092138;28;20550;-71
2021/06/29 09:21:41;;;;;;;3.80;2.60;;;23.10;99.90;;;;;;5091606;28;21163;-71
2021/06/29 09:24:34;;;;;;;5.00;3.00;;;23.20;99.90;;;;;;5092484;28;20474;-71
2021/06/29 09:27:42;;;;;;;7.20;2.67;;;23.30;99.90;;;;;;5092101;28;20419;-71
2021/06/29 09:30:33;;;;;;;3.37;2.50;;;23.40;99.90;;;;;;5092379;28;20542;-71
2021/06/29 09:33:20;;;;;;;3.90;2.10;;;23.60;99.90;;;;;;5087601;28;20563;-71
2021/06/29 09:36:08;;;;;;;5.40;2.87;;;23.80;99.90;;;;;;5067716;28;20464;-70
2021/06/29 09:38:59;;;;;;;3.70;2.80;;;23.80;99.90;;;;;;5074071;28;20437;-70
2021/06/29 09:41:47;;;;;;;3.80;2.40;;;23.80;99.90;;;;;;5060033;28;20470;-70
2021/06/29 09:44:36;;;;;;;5.10;2.90;;;23.80;99.90;;;;;;5076256;28;20514;-70
2021/06/29 09:47:26;;;;;;;3.20;2.80;;;23.40;99.90;;;;;;5070572;28;20460;-70
2021/06/29 09:50:39;;;;;;;2.70;2.10;;;23.30;99.90;;;;;;5069723;28;20523;-70
2021/06/29 09:53:27;;;;;;;4.10;2.70;;;23.30;99.90;;;;;;5068144;28;20599;-70
2021/06/29 09:56:18;;;;;;;4.30;2.80;;;23.30;99.90;;;;;;5068675;28;20836;-70
2021/06/29 09:59:06;;;;;;;3.57;2.43;;;23.40;99.90;;;;;;5060082;28;20461;-70
2021/06/29 10:02:04;;;;;;;4.40;2.50;;;23.30;99.90;;;;;;5066489;28;20452;-70
2021/06/29 10:04:51;;;;;;;4.53;2.77;;;23.40;99.90;;;;;;5072499;28;20940;-70
2021/06/29 10:07:39;;;;;;;4.57;2.70;;;23.70;99.90;;;;;;5062451;28;20460;-70
2021/06/29 10:10:26;;;;;;;5.03;2.60;;;24.00;99.90;;;;;;5067310;28;20795;-70
2021/06/29 10:13:16;;;;;;;9.50;3.33;;;24.30;99.90;;;;;;5068825;28;20969;-70
2021/06/29 10:16:04;;;;;;;3.00;2.63;;;24.50;99.90;;;;;;5071233;28;20961;-70
2021/06/29 10:18:54;;;;;;;6.20;2.80;;;24.60;99.90;;;;;;5065679;28;20440;-70
2021/06/29 10:21:42;;;;;;;6.40;3.23;;;24.20;99.90;;;;;;5064465;28;20504;-70
2021/06/29 10:24:32;;;;;;;6.47;3.23;;;24.30;99.90;;;;;;5082911;28;20837;-70
2021/06/29 10:27:19;;;;;;;4.67;2.77;;;24.30;99.90;;;;;;5081033;28;20456;-70
2021/06/29 10:30:06;;;;;;;5.73;2.90;;;24.50;99.90;;;;;;5080025;28;20598;-70
2021/06/29 10:32:53;;;;;;;5.13;2.73;;;24.30;99.00;;;;;;5049301;28;20437;-70
2021/06/29 10:35:39;;;;;;;2.97;2.40;;;24.50;99.90;;;;;;5051034;28;20794;-70
2021/06/29 10:38:24;;;;;;;3.77;2.87;;;24.50;96.10;;;;;;5051293;28;20548;-70
2021/06/29 10:41:10;;;;;;;4.70;2.53;;;24.50;96.50;;;;;;5075877;28;20420;-70
2021/06/29 10:43:56;;;;;;;3.27;2.10;;;24.80;99.90;;;;;;5050808;28;20497;-70
2021/06/29 10:46:45;;;;;;;5.00;2.70;;;24.70;94.20;;;;;;5050999;28;20456;-70
2021/06/29 10:49:42;;;;;;;6.20;2.70;;;24.90;95.90;;;;;;5051044;28;20556;-70
2021/06/29 10:52:39;;;;;;;2.97;2.23;;;25.20;96.10;;;;;;5051088;28;20433;-70
2021/06/29 10:55:29;;;;;;;9.63;2.90;;;25.30;98.30;;;;;;5050689;28;20417;-70
2021/06/29 10:58:35;;;;;;;4.10;2.80;;;25.50;93.90;;;;;;5051145;28;20431;-70
2021/06/29 11:01:31;;;;;;;3.57;2.60;;;25.60;94.30;;;;;;5051042;28;20765;-70
2021/06/29 11:05:01;;;;;;;2.87;2.20;;;25.70;94.60;;;;;;5050844;28;20468;-70
2021/06/29 11:07:48;;;;;;;2.93;2.33;;;25.90;93.40;;;;;;5041122;28;20453;-70
2021/06/29 11:10:36;;;;;;;2.70;2.20;;;26.00;93.90;;;;;;5075394;28;20793;-70
2021/06/29 11:13:40;;;;;;;6.43;2.73;;;26.00;91.30;;;;;;5089433;28;20470;-70
2021/06/29 11:16:53;;;;;;;5.03;2.30;;;26.10;91.00;;;;;;5090699;28;20422;-70
2021/06/29 11:20:07;;;;;;;4.03;2.40;;;26.30;90.20;;;;;;5090736;28;20431;-70
2021/06/29 11:22:57;;;;;;;3.37;2.30;;;26.40;79.50;;;;;;5094629;28;20588;-70
2021/06/29 11:25:50;;;;;;;6.73;2.60;;;26.50;83.70;;;;;;5094390;28;21039;-70
2021/06/29 11:28:38;;;;;;;3.70;2.43;;;26.50;79.30;;;;;;5093753;28;20888;-70
2021/06/29 11:31:30;;;;;;;4.50;2.77;;;26.50;79.90;;;;;;5092533;28;20419;-70
2021/06/29 11:34:26;;;;;;;2.90;2.33;;;26.50;83.00;;;;;;5094481;28;20412;-70
2021/06/29 11:37:12;;;;;;;3.13;2.20;;;26.30;75.00;;;;;;5094612;28;20920;-70
2021/06/29 11:40:00;;;;;;;5.23;2.43;;;26.20;79.40;;;;;;5089369;28;20440;-70
2021/06/29 11:43:07;;;;;;;3.87;2.10;;;26.30;82.40;;;;;;5080292;28;20485;-70
2021/06/29 11:45:53;;;;;;;7.17;2.53;;;26.30;75.40;;;;;;5081656;28;20767;-70
2021/06/29 11:48:43;;;;;;;3.30;2.23;;;26.10;79.30;;;;;;5063116;28;20449;-70
2021/06/29 11:51:53;;;;;;;4.17;2.57;;;26.00;76.10;;;;;;5068815;28;20456;-71
2021/06/29 11:54:43;;;;;;;3.07;2.50;;;25.80;76.50;;;;;;5077307;28;20496;-70
2021/06/29 11:57:34;;;;;;;4.27;2.20;;;25.80;80.40;;;;;;5077843;28;20442;-70
2021/06/29 12:00:29;;;;;;;4.40;2.50;;;26.00;79.30;;;;;;5070981;28;20453;-70
2021/06/29 12:03:19;;;;;;;3.30;2.37;;;26.30;81.10;;;;;;5077228;28;20515;-70
2021/06/29 12:06:05;;;;;;;2.63;2.07;;;26.60;79.60;;;;;;5081846;28;20445;-70
2021/06/29 12:08:59;;;;;;;2.50;1.80;;;26.70;69.00;;;;;;5071336;28;20448;-70
2021/06/29 12:11:44;;;;;;;3.37;2.33;;;26.80;70.70;;;;;;5070801;28;20448;-70
2021/06/29 12:14:31;;;;;;;4.20;2.83;;;27.10;78.00;;;;;;5079760;28;20490;-70
2021/06/29 12:17:17;;;;;;;4.57;2.33;;;27.10;76.50;;;;;;5081967;28;20577;-70
2021/06/29 12:20:09;;;;;;;2.90;1.97;;;27.20;75.10;;;;;;5069917;28;20446;-70
2021/06/29 12:22:56;;;;;;;2.70;2.20;;;27.20;72.50;;;;;;5071312;28;20457;-71
2021/06/29 12:25:47;;;;;;;2.87;2.20;;;27.30;70.40;;;;;;5073890;28;20472;-71
2021/06/29 12:28:36;;;;;;;4.20;2.37;;;27.50;65.20;;;;;;5076183;28;20479;-70
2021/06/29 12:31:23;;;;;;;3.53;2.60;;;27.70;66.00;;;;;;5073953;28;20460;-71
2021/06/29 12:34:08;;;;;;;3.20;2.23;;;27.80;70.70;;;;;;5082216;28;20421;-70
2021/06/29 12:37:04;;;;;;;6.07;2.20;;;27.80;64.40;;;;;;5076872;28;20556;-70
2021/06/29 12:39:49;;;;;;;4.47;2.40;;;27.50;62.70;;;;;;5077088;28;20460;-70
2021/06/29 12:42:36;;;;;;;3.53;2.70;;;27.30;65.40;;;;;;5075938;28;20566;-70
2021/06/29 12:45:23;;;;;;;3.70;2.30;;;27.30;61.30;;;;;;5081964;28;20472;-70
2021/06/29 12:48:10;;;;;;;3.80;1.77;;;27.50;66.70;;;;;;5080063;28;20462;-70
2021/06/29 12:51:04;;;;;;;5.13;2.23;;;27.50;61.20;;;;;;5067888;28;20453;-70
2021/06/29 12:53:54;;;;;;;3.90;2.40;;;27.50;65.20;;;;;;5071244;28;20512;-70
2021/06/29 12:56:42;;;;;;;4.13;2.30;;;27.30;60.40;;;;;;5062364;28;20487;-70
2021/06/29 12:59:30;;;;;;;3.77;2.57;;;27.00;60.80;;;;;;5067136;28;20469;-70
2021/06/29 13:02:19;;;;;;;3.30;2.57;;;26.90;66.20;;;;;;5073198;28;20600;-70
2021/06/29 13:05:14;;;;;;;7.60;2.30;;;26.70;63.90;;;;;;5075206;28;20526;-70
2021/06/29 13:08:10;;;;;;;3.27;2.20;;;26.50;63.90;;;;;;5078517;28;20461;-70
2021/06/29 13:10:56;;;;;;;4.83;2.87;;;26.10;66.00;;;;;;5075374;28;20457;-70
2021/06/29 13:13:42;;;;;;;4.20;2.90;;;26.00;79.30;;;;;;5067035;28;20451;-70
2021/06/29 13:16:28;;;;;;;3.20;2.50;;;25.90;82.60;;;;;;5065648;28;20852;-70
2021/06/29 13:19:19;;;;;;;5.03;2.40;;;25.90;85.70;;;;;;5072235;28;20434;-69
2021/06/29 13:22:08;;;;;;;3.90;2.50;;;25.80;84.40;;;;;;5073746;28;20858;-70
2021/06/29 13:24:54;;;;;;;3.67;2.60;;;25.70;91.60;;;;;;5078776;28;20537;-69
2021/06/29 13:27:40;;;;;;;8.83;2.43;;;25.70;94.50;;;;;;5073227;28;20534;-69
2021/06/29 13:30:26;;;;;;;4.43;2.57;;;25.40;94.30;;;;;;5080776;28;20465;-70
2021/06/29 13:33:13;;;;;;;4.90;2.50;;;25.30;96.60;;;;;;5083670;28;20467;-70
2021/06/29 13:35:59;;;;;;;2.97;2.60;;;25.20;98.00;;;;;;5075820;28;20529;-70
2021/06/29 13:38:55;;;;;;;4.87;3.00;;;25.00;97.80;;;;;;5075949;28;20445;-70
2021/06/29 13:41:41;;;;;;;16.23;2.93;;;25.00;98.50;;;;;;5072460;28;20424;-69
2021/06/29 13:44:27;;;;;;;9.23;2.00;;;24.60;95.10;;;;;;5073837;22;20455;-75
2021/06/29 13:47:13;;;;;;;5.20;1.70;;;23.80;95.40;;;;;;5071703;28;20943;-74
2021/06/29 13:50:05;;;;;;;3.53;1.50;;;23.00;97.10;;;;;;5066345;28;20912;-74
2021/06/29 13:52:59;;;;;;;7.70;1.63;;;22.30;99.30;;;;;;5064718;28;20490;-75
2021/06/29 13:55:52;;;;;;;12.50;2.30;;;21.60;99.90;;;;;;5063034;28;20458;-74
2021/06/29 13:58:39;;;;;;;12.83;2.13;;;21.30;99.90;;;;;;5061818;28;20418;-73
2021/06/29 14:01:26;;;;;;;6.90;1.67;;;19.60;99.90;;;;;;5059780;28;20821;-74
2021/06/29 14:04:12;;;;;;;2.80;1.27;;;18.90;99.90;;;;;;5060294;28;20601;-75
2021/06/29 14:07:08;;;;;;;6.63;1.53;;;18.60;99.90;;;;;;5065505;28;20533;-75
2021/06/29 14:09:54;;;;;;;3.93;1.57;;;18.60;99.90;;;;;;5062591;28;20529;-76
2021/06/29 14:12:42;;;;;;;5.70;1.87;;;18.60;99.90;;;;;;5064826;28;20419;-75
2021/06/29 14:15:27;;;;;;;3.10;1.90;;;18.60;99.90;;;;;;5058752;28;20475;-76
2021/06/29 14:18:13;;;;;;;3.63;1.63;;;18.70;99.90;;;;;;5068532;28;20446;-74
2021/06/29 14:20:59;;;;;;;3.77;1.70;;;18.90;99.90;;;;;;5065264;28;20501;-72
2021/06/29 14:23:46;;;;;;;3.50;1.80;;;18.90;99.90;;;;;;5066325;28;20445;-72
2021/06/29 14:26:32;;;;;;;2.53;1.57;;;18.90;99.90;;;;;;5061075;28;20585;-75
2021/06/29 14:29:19;;;;;;;4.90;1.67;;;18.80;99.90;;;;;;5068267;28;20454;-74
2021/06/29 14:32:06;;;;;;;3.10;1.90;;;18.70;99.90;;;;;;5065933;28;20567;-74